Time;durP1;ratioP1;P1;durP2;ratioP2;P2;SDS_P1;SDS_P2;PMS_P1;PMS_P2;Temp;Humidity;BMP_temperature;BMP_pressure;BME280_temperature;BME280_humidity;BME280_pressure;Samples;Min_cycle;Max_cycle;Signal;HPM_P1;HPM_P2
2021/12/02 00:01:30;;;;;;;5.13;0.93;;;10.80;96.70;;;;;;4901016;29;20039;-75
2021/12/02 00:03:59;;;;;;;4.10;1.08;;;10.80;96.70;;;;;;4881565;29;20060;-75
2021/12/02 00:06:27;;;;;;;5.15;1.10;;;10.80;96.70;;;;;;4906068;29;20048;-75
2021/12/02 00:08:55;;;;;;;4.53;1.02;;;10.80;96.70;;;;;;4901345;29;20522;-75
2021/12/02 00:11:25;;;;;;;5.80;1.30;;;10.80;96.70;;;;;;4920948;29;20553;-75
2021/12/02 00:17:13;;;;;;;3.63;0.85;;;10.90;96.70;;;;;;4876490;29;20052;-75
2021/12/02 00:22:01;;;;;;;4.97;0.97;;;10.90;96.70;;;;;;4897933;29;20052;-75
2021/12/02 00:24:34;;;;;;;2.78;0.85;;;11.00;96.70;;;;;;4893519;29;20041;-75
2021/12/02 00:27:06;;;;;;;5.45;0.95;;;11.00;96.70;;;;;;4885487;29;20064;-75
2021/12/02 00:29:36;;;;;;;3.47;0.93;;;11.00;96.70;;;;;;4895491;29;20824;-75
2021/12/02 00:32:07;;;;;;;4.90;1.17;;;11.00;96.70;;;;;;4880850;29;20040;-75
2021/12/02 00:34:41;;;;;;;4.32;1.00;;;11.00;96.70;;;;;;4895428;29;20506;-75
2021/12/02 00:37:09;;;;;;;5.28;1.00;;;11.00;96.70;;;;;;4899193;29;20123;-76
2021/12/02 00:39:38;;;;;;;5.65;1.33;;;11.00;96.70;;;;;;4879410;29;20091;-75
2021/12/02 00:42:09;;;;;;;4.55;1.25;;;11.00;96.70;;;;;;4896068;29;20088;-76
2021/12/02 00:44:38;;;;;;;3.58;0.75;;;11.00;96.70;;;;;;4864908;29;20040;-75
2021/12/02 00:47:08;;;;;;;5.28;1.05;;;11.00;96.70;;;;;;4881299;29;20455;-75
2021/12/02 00:49:36;;;;;;;4.97;1.13;;;11.00;96.70;;;;;;4897247;29;20551;-75
2021/12/02 00:52:06;;;;;;;3.95;0.90;;;11.00;96.70;;;;;;4878939;29;20051;-75
2021/12/02 00:54:41;;;;;;;4.75;1.10;;;11.00;96.70;;;;;;4896358;29;20099;-75
2021/12/02 00:57:12;;;;;;;3.63;1.38;;;11.00;96.70;;;;;;4867147;29;20059;-74
2021/12/02 00:59:41;;;;;;;4.38;0.95;;;11.00;96.70;;;;;;4879058;29;20051;-74
2021/12/02 01:02:10;;;;;;;3.05;0.60;;;11.10;96.70;;;;;;4859485;29;20471;-74
2021/12/02 01:04:39;;;;;;;5.22;0.75;;;11.10;96.70;;;;;;4894619;29;20044;-74
2021/12/02 01:07:07;;;;;;;6.47;1.08;;;11.10;96.70;;;;;;4879537;29;20047;-74
2021/12/02 01:09:35;;;;;;;2.38;0.68;;;11.00;96.70;;;;;;4896634;29;20071;-75
2021/12/02 01:12:04;;;;;;;3.22;0.80;;;11.00;96.70;;;;;;4874496;29;20503;-74
2021/12/02 01:14:33;;;;;;;2.30;0.77;;;11.00;96.70;;;;;;4897411;29;20047;-74
2021/12/02 01:17:02;;;;;;;5.68;0.80;;;11.00;96.70;;;;;;4891960;29;20048;-74
2021/12/02 01:19:30;;;;;;;2.97;0.60;;;11.00;96.70;;;;;;4915781;29;20052;-74
2021/12/02 01:22:00;;;;;;;2.45;0.80;;;10.90;96.70;;;;;;4913440;29;20040;-74
2021/12/02 01:24:30;;;;;;;3.65;0.73;;;10.90;96.70;;;;;;4911196;29;20046;-74
2021/12/02 01:27:00;;;;;;;4.25;1.10;;;11.00;96.70;;;;;;4900856;29;20257;-74
2021/12/02 01:29:28;;;;;;;2.03;0.50;;;11.00;96.70;;;;;;4903540;29;20052;-74
2021/12/02 01:32:03;;;;;;;2.47;0.60;;;10.90;96.70;;;;;;4915498;29;20553;-74
2021/12/02 01:34:32;;;;;;;2.08;0.45;;;10.90;96.70;;;;;;4898472;29;20067;-74
2021/12/02 01:37:01;;;;;;;2.95;0.70;;;10.90;96.70;;;;;;4912361;29;20050;-73
2021/12/02 01:39:30;;;;;;;5.10;0.75;;;10.80;96.70;;;;;;4894898;29;20052;-74
2021/12/02 01:42:01;;;;;;;2.35;0.75;;;10.80;96.70;;;;;;4913308;29;20114;-74
2021/12/02 01:44:30;;;;;;;2.60;0.70;;;10.80;96.70;;;;;;4915632;29;20044;-74
2021/12/02 01:47:00;;;;;;;1.00;0.30;;;10.80;96.70;;;;;;4915990;29;20047;-74
2021/12/02 01:49:34;;;;;;;3.45;0.90;;;10.80;96.70;;;;;;4904816;29;20038;-74
2021/12/02 01:52:08;;;;;;;4.10;0.80;;;10.80;96.70;;;;;;4887719;29;20072;-74
2021/12/02 01:54:43;;;;;;;2.15;0.60;;;10.80;96.70;;;;;;4901568;29;20071;-74
2021/12/02 01:57:29;;;;;;;5.10;1.00;;;10.90;96.70;;;;;;4916705;29;20369;-74
2021/12/02 02:00:07;;;;;;;5.80;0.90;;;10.90;96.70;;;;;;4885791;29;20095;-74
2021/12/02 02:02:40;;;;;;;3.58;1.02;;;10.90;96.70;;;;;;4900229;29;20146;-74
2021/12/02 02:05:12;;;;;;;2.58;0.60;;;11.00;96.70;;;;;;4905487;29;20524;-74
2021/12/02 02:07:54;;;;;;;7.00;0.77;;;11.10;96.70;;;;;;4905402;29;20051;-74
2021/12/02 02:10:23;;;;;;;3.70;1.08;;;11.20;96.70;;;;;;4905910;29;20084;-74
2021/12/02 02:12:53;;;;;;;3.75;1.17;;;11.30;96.70;;;;;;4916277;29;20597;-74
2021/12/02 02:15:21;;;;;;;6.07;0.77;;;11.40;96.70;;;;;;4906260;29;20079;-74
2021/12/02 02:17:56;;;;;;;2.20;0.70;;;11.40;96.70;;;;;;4903273;29;20043;-74
2021/12/02 02:20:37;;;;;;;4.80;0.80;;;11.30;96.70;;;;;;4917429;29;20048;-73
2021/12/02 02:23:09;;;;;;;4.10;0.90;;;11.30;96.70;;;;;;4920618;29;20048;-74
2021/12/02 02:25:37;;;;;;;8.25;0.90;;;11.30;96.70;;;;;;4921902;29;20051;-74
2021/12/02 02:28:05;;;;;;;6.20;1.00;;;11.20;96.70;;;;;;4927960;29;20043;-74
2021/12/02 02:30:34;;;;;;;3.22;0.75;;;11.20;96.70;;;;;;4906211;29;20445;-74
2021/12/02 02:33:02;;;;;;;4.28;1.10;;;11.10;96.70;;;;;;4885576;29;20100;-74
2021/12/02 02:35:31;;;;;;;5.35;0.95;;;11.10;96.70;;;;;;4899571;29;20652;-73
2021/12/02 02:38:00;;;;;;;1.65;0.50;;;11.10;96.70;;;;;;4918786;29;20043;-73
2021/12/02 02:40:28;;;;;;;5.63;0.80;;;11.10;96.70;;;;;;4922559;29;20039;-73
2021/12/02 02:42:59;;;;;;;3.45;0.70;;;11.20;96.70;;;;;;4902965;29;20386;-73
2021/12/02 02:45:28;;;;;;;6.35;0.80;;;11.10;96.70;;;;;;4908411;29;20126;-75
2021/12/02 02:47:56;;;;;;;4.47;0.60;;;11.10;96.70;;;;;;4929212;29;20135;-73
2021/12/02 02:50:24;;;;;;;2.38;0.65;;;11.10;96.70;;;;;;4890734;29;20055;-73
2021/12/02 02:53:02;;;;;;;4.05;0.60;;;11.10;96.70;;;;;;4887078;29;20044;-73
2021/12/02 02:55:31;;;;;;;2.40;0.65;;;11.10;96.70;;;;;;4912643;29;20055;-73
2021/12/02 02:58:07;;;;;;;3.85;0.80;;;11.20;96.70;;;;;;4903030;29;20425;-73
2021/12/02 03:00:40;;;;;;;4.82;0.60;;;11.20;96.70;;;;;;4924175;29;20042;-76
2021/12/02 03:06:06;;;;;;;2.85;0.40;;;11.20;96.70;;;;;;4914142;29;20056;-73
2021/12/02 03:08:44;;;;;;;2.05;0.60;;;11.10;96.70;;;;;;4886310;29;20058;-73
2021/12/02 03:11:13;;;;;;;3.20;0.40;;;11.10;96.70;;;;;;4908319;29;20573;-74
2021/12/02 03:13:52;;;;;;;2.30;0.52;;;11.10;96.70;;;;;;4903795;29;20379;-74
2021/12/02 03:19:07;;;;;;;1.67;0.50;;;11.00;96.70;;;;;;4919104;29;20394;-73
2021/12/02 03:21:35;;;;;;;4.13;0.57;;;11.00;96.70;;;;;;4905313;29;20041;-73
2021/12/02 03:24:05;;;;;;;1.75;0.60;;;11.00;96.70;;;;;;4904397;29;20043;-73
2021/12/02 03:26:34;;;;;;;3.70;0.63;;;11.00;96.70;;;;;;4916854;29;20036;-73
2021/12/02 03:29:04;;;;;;;2.35;0.55;;;11.00;96.70;;;;;;4904649;29;20139;-75
2021/12/02 03:31:32;;;;;;;2.78;0.40;;;11.00;96.70;;;;;;4888145;29;20068;-75
2021/12/02 03:34:01;;;;;;;2.33;0.57;;;10.90;96.70;;;;;;4894479;29;20446;-76
2021/12/02 03:36:30;;;;;;;3.58;1.27;;;10.90;96.70;;;;;;4913826;29;20147;-75
2021/12/02 03:38:58;;;;;;;2.25;0.65;;;10.90;96.70;;;;;;4904452;29;20048;-76
2021/12/02 03:41:28;;;;;;;3.08;0.55;;;10.90;96.70;;;;;;4919108;29;20036;-75
2021/12/02 03:43:56;;;;;;;4.15;0.80;;;10.90;96.70;;;;;;4921162;29;20098;-76
2021/12/02 03:46:25;;;;;;;2.47;1.05;;;10.90;96.70;;;;;;4914279;29;20551;-75
2021/12/02 03:48:54;;;;;;;6.47;1.05;;;11.00;96.70;;;;;;4902582;29;20467;-76
2021/12/02 03:51:23;;;;;;;4.28;0.95;;;11.00;96.70;;;;;;4916631;29;20110;-76
2021/12/02 03:53:51;;;;;;;6.72;1.20;;;11.00;96.70;;;;;;4906702;29;20050;-76
2021/12/02 03:56:20;;;;;;;3.00;0.80;;;11.10;96.70;;;;;;4903026;29;20048;-76
2021/12/02 03:58:50;;;;;;;5.55;0.55;;;11.10;96.70;;;;;;4903472;29;20150;-76
2021/12/02 04:01:20;;;;;;;6.13;0.60;;;11.10;96.70;;;;;;4904914;29;20047;-75
2021/12/02 04:03:49;;;;;;;4.93;0.95;;;11.10;96.70;;;;;;4904824;29;20036;-75
2021/12/02 04:06:18;;;;;;;5.75;1.20;;;11.10;96.70;;;;;;4887663;29;20052;-76
2021/12/02 04:14:10;;;;;;;3.17;0.60;;;11.00;96.70;;;;;;4877683;29;20052;-76
2021/12/02 04:16:40;;;;;;;3.03;0.57;;;11.00;96.70;;;;;;4894975;29;20051;-76
2021/12/02 04:19:10;;;;;;;2.33;0.50;;;11.00;96.70;;;;;;4896812;29;20464;-76
2021/12/02 04:21:40;;;;;;;4.10;0.75;;;11.00;96.70;;;;;;4881015;29;20514;-76
2021/12/02 04:24:08;;;;;;;1.50;0.55;;;11.00;96.70;;;;;;4873819;29;20040;-75
2021/12/02 04:26:39;;;;;;;2.55;0.73;;;10.90;96.70;;;;;;4899127;29;20033;-76
2021/12/02 04:29:09;;;;;;;2.95;0.50;;;10.90;96.70;;;;;;4866302;29;20048;-75
2021/12/02 04:31:40;;;;;;;2.38;0.52;;;10.90;96.70;;;;;;4897528;29;20411;-76
2021/12/02 04:34:08;;;;;;;1.40;0.40;;;10.90;96.70;;;;;;4894431;29;21921;-75
2021/12/02 04:36:36;;;;;;;3.65;0.73;;;10.90;96.70;;;;;;4865376;29;20036;-76
2021/12/02 04:39:05;;;;;;;2.33;0.93;;;10.90;96.70;;;;;;4898116;29;20547;-75
2021/12/02 04:41:34;;;;;;;2.97;0.50;;;10.90;96.70;;;;;;4887533;29;20048;-76
2021/12/02 04:44:02;;;;;;;1.75;0.40;;;10.90;96.70;;;;;;4891870;29;20051;-75
2021/12/02 04:46:33;;;;;;;4.53;0.70;;;10.80;96.70;;;;;;4882304;29;20066;-76
2021/12/02 04:49:02;;;;;;;1.60;0.50;;;10.80;96.70;;;;;;4879853;29;20056;-76
2021/12/02 04:51:32;;;;;;;1.58;0.63;;;10.80;96.70;;;;;;4896275;29;20123;-76
2021/12/02 04:54:01;;;;;;;3.67;0.75;;;10.80;96.70;;;;;;4884100;29;20041;-75
2021/12/02 04:56:29;;;;;;;1.45;0.45;;;10.70;96.70;;;;;;4869055;29;20138;-76
2021/12/02 04:58:57;;;;;;;2.97;0.60;;;10.70;96.70;;;;;;4878350;29;20522;-75
2021/12/02 05:01:26;;;;;;;2.53;0.60;;;10.70;96.70;;;;;;4878882;29;20410;-75
2021/12/02 05:03:55;;;;;;;2.75;0.65;;;10.70;96.70;;;;;;4893080;29;20048;-75
2021/12/02 05:06:23;;;;;;;1.13;0.35;;;10.70;96.70;;;;;;4879667;29;20064;-76
2021/12/02 05:08:52;;;;;;;1.15;0.50;;;10.70;96.70;;;;;;4880174;29;20078;-76
2021/12/02 05:11:20;;;;;;;2.30;0.60;;;10.70;96.70;;;;;;4876803;29;20449;-76
2021/12/02 05:13:48;;;;;;;1.92;0.68;;;10.70;96.70;;;;;;4904410;29;20559;-76
2021/12/02 05:16:16;;;;;;;3.63;0.70;;;10.60;96.70;;;;;;4900794;29;20305;-75
2021/12/02 05:18:45;;;;;;;4.47;0.80;;;10.60;96.70;;;;;;4902139;29;20511;-76
2021/12/02 05:21:14;;;;;;;4.10;0.73;;;10.70;96.70;;;;;;4898317;29;20067;-75
2021/12/02 05:23:43;;;;;;;2.78;1.52;;;10.60;96.70;;;;;;4897122;29;22298;-75
2021/12/02 05:26:11;;;;;;;5.53;3.42;;;10.60;96.70;;;;;;4917664;29;20110;-75
2021/12/02 05:28:39;;;;;;;5.65;3.53;;;10.60;96.70;;;;;;4916162;29;20048;-76
2021/12/02 05:31:07;;;;;;;7.13;2.17;;;10.60;96.70;;;;;;4916346;29;20568;-76
2021/12/02 05:33:35;;;;;;;4.63;1.38;;;10.60;96.70;;;;;;4892481;29;20044;-75
2021/12/02 05:36:04;;;;;;;3.40;1.52;;;10.50;96.70;;;;;;4899194;29;20039;-76
2021/12/02 05:38:34;;;;;;;3.78;1.48;;;10.50;96.70;;;;;;4905039;29;20526;-75
2021/12/02 05:41:03;;;;;;;3.47;1.25;;;10.50;96.70;;;;;;4922571;29;20043;-75
2021/12/02 05:43:31;;;;;;;3.65;1.10;;;10.50;96.70;;;;;;4926016;29;20047;-75
2021/12/02 05:46:00;;;;;;;3.92;1.20;;;10.50;96.70;;;;;;4899272;29;20412;-76
2021/12/02 05:48:28;;;;;;;4.10;1.45;;;10.50;96.70;;;;;;4904824;29;20144;-76
2021/12/02 05:50:57;;;;;;;3.70;1.00;;;10.40;96.70;;;;;;4915652;28;20047;-76
2021/12/02 05:53:25;;;;;;;2.53;1.23;;;10.40;96.70;;;;;;4918073;29;20036;-75
2021/12/02 05:55:55;;;;;;;2.60;1.00;;;10.40;96.70;;;;;;4896433;29;20126;-76
2021/12/02 05:58:23;;;;;;;4.13;1.33;;;10.30;96.70;;;;;;4922561;29;20044;-75
2021/12/02 06:00:53;;;;;;;2.78;1.25;;;10.30;96.70;;;;;;4917892;29;20043;-75
2021/12/02 06:03:21;;;;;;;3.50;1.27;;;10.30;96.70;;;;;;4911851;29;20418;-76
2021/12/02 06:05:56;;;;;;;3.03;1.08;;;10.30;96.70;;;;;;4889673;29;20067;-76
2021/12/02 06:08:24;;;;;;;2.95;1.08;;;10.20;96.70;;;;;;4891929;29;20123;-76
2021/12/02 06:10:54;;;;;;;1.88;1.20;;;10.20;96.70;;;;;;4914533;29;20146;-76
2021/12/02 06:13:24;;;;;;;4.47;1.30;;;10.20;96.70;;;;;;4883458;29;20048;-75
2021/12/02 06:15:53;;;;;;;3.00;1.30;;;10.20;96.70;;;;;;4925335;29;20058;-76
2021/12/02 06:18:21;;;;;;;3.13;1.30;;;10.10;96.70;;;;;;4918425;29;20048;-76
2021/12/02 06:20:54;;;;;;;5.28;1.50;;;10.10;96.70;;;;;;4918672;29;20040;-76
2021/12/02 06:23:23;;;;;;;5.55;1.60;;;10.20;96.70;;;;;;4910676;29;20476;-76
2021/12/02 06:25:51;;;;;;;4.20;1.70;;;10.20;96.70;;;;;;4922324;29;20054;-76
2021/12/02 06:28:21;;;;;;;3.80;1.80;;;10.10;96.70;;;;;;4901256;29;20074;-76
2021/12/02 06:30:49;;;;;;;2.78;1.45;;;10.10;96.70;;;;;;4903456;29;20048;-76
2021/12/02 06:33:17;;;;;;;5.72;1.70;;;10.10;96.70;;;;;;4904192;29;20052;-75
2021/12/02 06:35:46;;;;;;;6.75;2.00;;;10.10;96.70;;;;;;4900996;29;20044;-75
2021/12/02 06:38:14;;;;;;;4.22;1.70;;;10.10;96.70;;;;;;4906497;29;20146;-75
2021/12/02 06:40:45;;;;;;;3.53;1.63;;;10.20;96.70;;;;;;4918621;29;20648;-76
2021/12/02 06:43:16;;;;;;;4.65;1.70;;;10.10;96.70;;;;;;4899382;29;20590;-75
2021/12/02 06:45:46;;;;;;;5.15;1.77;;;10.10;96.70;;;;;;4901198;29;20036;-76
2021/12/02 06:48:15;;;;;;;3.63;1.70;;;10.10;96.70;;;;;;4902197;29;20048;-75
2021/12/02 06:50:43;;;;;;;4.25;1.80;;;10.10;96.70;;;;;;4898440;29;20052;-76
2021/12/02 06:53:16;;;;;;;4.32;2.42;;;10.10;96.70;;;;;;4919844;29;20594;-75
2021/12/02 06:55:45;;;;;;;4.60;1.80;;;10.10;96.70;;;;;;4917327;29;20535;-76
2021/12/02 06:58:13;;;;;;;3.88;1.75;;;10.10;96.70;;;;;;4915559;29;20044;-76
2021/12/02 07:00:41;;;;;;;4.63;2.00;;;10.10;96.70;;;;;;4916665;29;20502;-76
2021/12/02 07:03:11;;;;;;;4.07;1.77;;;10.10;96.70;;;;;;4916203;29;20126;-76
2021/12/02 07:05:40;;;;;;;3.58;1.42;;;10.10;96.70;;;;;;4906352;29;20050;-76
2021/12/02 07:08:08;;;;;;;4.40;1.92;;;10.10;96.70;;;;;;4915784;29;20484;-76
2021/12/02 07:10:41;;;;;;;4.70;2.15;;;10.20;96.70;;;;;;4908167;29;20055;-76
2021/12/02 07:13:09;;;;;;;5.47;1.92;;;10.20;96.70;;;;;;4891457;29;20044;-76
2021/12/02 07:15:51;;;;;;;6.13;2.05;;;10.20;96.70;;;;;;4904478;29;20502;-76
2021/12/02 07:18:20;;;;;;;8.88;2.85;;;10.20;96.70;;;;;;4901224;29;20174;-77
2021/12/02 07:20:50;;;;;;;5.63;2.50;;;10.20;96.70;;;;;;4898551;29;20511;-76
2021/12/02 07:23:20;;;;;;;6.57;2.63;;;10.20;96.70;;;;;;4921729;29;20049;-78
2021/12/02 07:25:50;;;;;;;5.47;3.30;;;10.20;96.70;;;;;;4903663;29;20067;-77
2021/12/02 07:28:19;;;;;;;6.05;2.97;;;10.20;96.70;;;;;;4901916;29;20052;-76
2021/12/02 07:30:52;;;;;;;5.95;2.85;;;10.20;96.70;;;;;;4921629;29;20042;-76
2021/12/02 07:33:27;;;;;;;5.20;2.10;;;10.20;96.70;;;;;;4919699;29;20054;-76
2021/12/02 07:36:00;;;;;;;8.52;2.90;;;10.30;96.70;;;;;;4901766;29;20048;-76
2021/12/02 07:38:29;;;;;;;5.53;2.13;;;10.30;96.70;;;;;;4921450;29;20051;-77
2021/12/02 07:41:00;;;;;;;5.32;2.30;;;10.30;96.70;;;;;;4895085;29;20048;-76
2021/12/02 07:43:29;;;;;;;4.80;1.67;;;10.40;96.70;;;;;;4904497;29;20091;-77
2021/12/02 07:45:57;;;;;;;3.90;1.83;;;10.40;96.70;;;;;;4904262;29;20127;-76
2021/12/02 07:48:27;;;;;;;4.05;1.73;;;10.40;96.70;;;;;;4917378;29;20036;-77
2021/12/02 07:50:59;;;;;;;6.30;2.05;;;10.40;96.70;;;;;;4911922;29;20040;-77
2021/12/02 07:53:28;;;;;;;4.47;2.60;;;10.50;96.70;;;;;;4888485;29;20054;-76
2021/12/02 07:55:56;;;;;;;5.10;1.98;;;10.50;96.70;;;;;;4919609;29;20047;-75
2021/12/02 07:58:25;;;;;;;5.22;2.50;;;10.50;96.70;;;;;;4921844;29;20243;-76
2021/12/02 08:00:59;;;;;;;9.10;2.90;;;10.50;96.70;;;;;;4915863;29;20037;-76
2021/12/02 08:03:29;;;;;;;4.40;2.30;;;10.60;96.70;;;;;;4921517;29;20055;-76
2021/12/02 08:05:57;;;;;;;7.10;2.97;;;10.60;96.70;;;;;;4890869;29;20151;-77
2021/12/02 08:08:26;;;;;;;5.85;2.50;;;10.60;96.70;;;;;;4900754;29;20052;-76
2021/12/02 08:10:53;;;;;;;7.43;3.05;;;10.60;96.70;;;;;;4897373;29;20043;-76
2021/12/02 08:13:30;;;;;;;4.25;2.28;;;10.60;96.70;;;;;;4917551;28;20215;-77
2021/12/02 08:15:58;;;;;;;7.32;2.50;;;10.60;96.70;;;;;;4899796;29;20048;-76
2021/12/02 08:18:28;;;;;;;5.72;2.53;;;10.60;96.70;;;;;;4895894;29;20163;-77
2021/12/02 08:20:56;;;;;;;7.88;2.55;;;10.60;96.70;;;;;;4899175;29;20557;-76
2021/12/02 08:23:24;;;;;;;6.50;3.47;;;10.60;96.70;;;;;;4917700;29;20047;-77
2021/12/02 08:25:54;;;;;;;8.43;2.70;;;10.60;96.70;;;;;;4901198;29;20103;-75
2021/12/02 08:28:22;;;;;;;6.25;2.85;;;10.60;96.70;;;;;;4918880;29;20505;-76
2021/12/02 08:30:50;;;;;;;3.88;2.10;;;10.60;96.70;;;;;;4893655;29;20131;-76
2021/12/02 08:33:19;;;;;;;6.18;2.60;;;10.60;96.70;;;;;;4901985;29;20056;-75
2021/12/02 08:35:50;;;;;;;5.50;2.40;;;10.60;96.70;;;;;;4899561;29;20050;-76
2021/12/02 08:38:21;;;;;;;9.35;4.00;;;10.60;96.70;;;;;;4916281;29;20313;-77
2021/12/02 08:40:49;;;;;;;16.77;5.22;;;10.60;96.70;;;;;;4900545;29;20048;-76
2021/12/02 08:43:18;;;;;;;8.48;3.60;;;10.60;96.70;;;;;;4901740;29;20056;-76
2021/12/02 08:45:47;;;;;;;8.27;3.53;;;10.60;96.70;;;;;;4899356;29;20150;-77
2021/12/02 08:48:15;;;;;;;11.02;3.80;;;10.60;96.70;;;;;;4895158;29;20119;-77
2021/12/02 08:50:46;;;;;;;5.97;2.95;;;10.60;96.70;;;;;;4897989;29;20178;-77
2021/12/02 08:53:16;;;;;;;6.03;2.22;;;10.60;96.70;;;;;;4896983;29;20059;-77
2021/12/02 08:55:45;;;;;;;5.72;1.75;;;10.60;96.70;;;;;;4881563;29;20059;-77
2021/12/02 08:58:13;;;;;;;5.60;2.00;;;10.60;96.70;;;;;;4915461;29;20043;-77
2021/12/02 09:00:41;;;;;;;3.60;1.60;;;10.70;96.70;;;;;;4914210;29;20052;-76
2021/12/02 09:03:13;;;;;;;5.63;1.48;;;10.70;96.70;;;;;;4915510;29;20088;-76
2021/12/02 09:05:43;;;;;;;2.53;1.20;;;10.70;96.70;;;;;;4917764;29;20047;-76
2021/12/02 09:08:12;;;;;;;4.55;1.33;;;10.70;96.70;;;;;;4898627;29;20040;-76
2021/12/02 09:10:42;;;;;;;2.75;1.30;;;10.70;96.70;;;;;;4917441;29;20475;-76
2021/12/02 09:13:10;;;;;;;3.90;1.40;;;10.80;96.70;;;;;;4907347;29;20414;-76
2021/12/02 09:15:39;;;;;;;3.53;1.08;;;10.70;96.70;;;;;;4915066;29;20495;-76
2021/12/02 09:18:07;;;;;;;2.95;1.00;;;10.70;96.70;;;;;;4892213;29;20051;-76
2021/12/02 09:20:35;;;;;;;2.25;1.15;;;10.70;96.70;;;;;;4904769;29;20054;-76
2021/12/02 09:23:04;;;;;;;2.80;1.38;;;10.80;96.70;;;;;;4897385;29;20076;-76
2021/12/02 09:25:32;;;;;;;3.38;1.30;;;10.90;96.70;;;;;;4899075;29;20050;-76
2021/12/02 09:28:01;;;;;;;3.38;1.65;;;10.90;96.70;;;;;;4914783;29;20068;-76
2021/12/02 09:30:30;;;;;;;4.80;1.83;;;10.90;96.70;;;;;;4898590;29;20052;-75
2021/12/02 09:32:58;;;;;;;3.90;1.67;;;10.90;96.70;;;;;;4913866;29;20123;-77
2021/12/02 09:35:26;;;;;;;7.57;2.42;;;11.00;96.70;;;;;;4915009;29;20547;-76
2021/12/02 09:37:54;;;;;;;6.13;2.83;;;11.00;96.70;;;;;;4893977;29;20040;-76
2021/12/02 09:40:22;;;;;;;5.05;2.17;;;11.00;96.70;;;;;;4920869;29;20498;-77
2021/12/02 09:42:50;;;;;;;5.05;2.40;;;11.10;96.70;;;;;;4898021;29;20039;-77
2021/12/02 09:45:20;;;;;;;6.97;3.38;;;11.10;96.70;;;;;;4894664;29;20054;-76
2021/12/02 09:47:50;;;;;;;10.43;4.35;;;11.20;96.70;;;;;;4904307;29;20044;-77
2021/12/02 09:50:24;;;;;;;7.93;4.68;;;11.10;96.70;;;;;;4903489;29;20051;-76
2021/12/02 09:52:53;;;;;;;12.50;7.65;;;11.10;96.70;;;;;;4899225;29;20502;-76
2021/12/02 09:55:25;;;;;;;9.60;7.03;;;11.10;96.70;;;;;;4879594;29;20035;-76
2021/12/02 09:57:58;;;;;;;14.18;8.60;;;11.10;96.70;;;;;;4896581;29;20062;-76
2021/12/02 10:03:21;;;;;;;8.10;3.60;;;11.10;96.70;;;;;;4903275;29;20501;-77
2021/12/02 10:06:06;;;;;;;5.10;2.92;;;11.10;96.70;;;;;;4913726;29;20043;-76
2021/12/02 10:08:41;;;;;;;6.88;3.97;;;11.10;96.70;;;;;;4899524;29;20056;-76
2021/12/02 10:11:14;;;;;;;4.70;2.95;;;11.20;96.70;;;;;;4903068;29;20067;-76
2021/12/02 10:13:50;;;;;;;3.35;2.03;;;11.20;96.70;;;;;;4900829;29;20071;-77
2021/12/02 10:18:57;;;;;;;4.60;1.52;;;11.20;96.70;;;;;;4904739;29;20499;-76
2021/12/02 10:21:32;;;;;;;3.88;1.35;;;11.20;96.70;;;;;;4924092;29;20406;-77
2021/12/02 10:24:03;;;;;;;2.25;1.05;;;11.30;96.70;;;;;;4917885;29;20048;-76
2021/12/02 10:26:39;;;;;;;4.70;1.60;;;11.30;96.70;;;;;;4902218;29;20044;-76
2021/12/02 10:29:17;;;;;;;5.72;2.72;;;11.30;96.70;;;;;;4908016;29;20044;-75
2021/12/02 10:32:02;;;;;;;4.25;2.15;;;11.40;96.70;;;;;;4903804;29;20047;-75
2021/12/02 10:34:31;;;;;;;5.03;3.88;;;11.40;96.70;;;;;;4920969;29;20107;-76
2021/12/02 10:37:10;;;;;;;7.55;6.35;;;11.40;96.70;;;;;;4907185;29;20498;-76
2021/12/02 10:39:38;;;;;;;5.85;4.63;;;11.30;96.70;;;;;;4898885;29;20549;-75
2021/12/02 10:42:09;;;;;;;4.50;3.95;;;11.30;96.70;;;;;;4906690;29;20062;-76
2021/12/02 10:44:41;;;;;;;8.00;4.60;;;11.30;96.70;;;;;;4906319;29;20040;-75
2021/12/02 10:47:12;;;;;;;13.40;4.00;;;11.30;96.70;;;;;;4887627;29;20039;-78
2021/12/02 10:49:42;;;;;;;7.05;2.72;;;11.30;96.70;;;;;;4923079;29;20048;-75
2021/12/02 10:52:13;;;;;;;9.45;2.90;;;11.20;96.70;;;;;;4902344;29;20048;-76
2021/12/02 10:54:44;;;;;;;7.35;3.15;;;11.20;96.70;;;;;;4904377;29;20036;-76
2021/12/02 10:57:14;;;;;;;4.20;1.98;;;11.20;96.70;;;;;;4911512;29;20047;-75
2021/12/02 10:59:46;;;;;;;6.55;2.33;;;11.30;96.70;;;;;;4885219;29;20126;-75
2021/12/02 11:02:28;;;;;;;6.40;3.10;;;11.20;96.70;;;;;;4900649;29;20134;-75
2021/12/02 11:05:01;;;;;;;4.05;2.50;;;11.20;96.70;;;;;;4917375;29;20537;-75
2021/12/02 11:07:32;;;;;;;6.65;3.95;;;11.20;96.70;;;;;;4923349;29;20043;-76
2021/12/02 11:10:03;;;;;;;6.82;4.93;;;11.20;96.70;;;;;;4903236;29;20328;-76
2021/12/02 11:12:33;;;;;;;7.35;4.40;;;11.20;96.70;;;;;;4916630;28;20119;-75
2021/12/02 11:15:10;;;;;;;6.97;4.30;;;11.20;96.70;;;;;;4923354;29;20039;-76
2021/12/02 11:17:43;;;;;;;7.60;4.15;;;11.20;96.70;;;;;;4922522;29;20169;-74
2021/12/02 11:20:16;;;;;;;5.90;3.20;;;11.20;96.70;;;;;;4915989;29;20058;-75
2021/12/02 11:22:45;;;;;;;4.60;3.20;;;11.20;96.70;;;;;;4888781;29;20430;-75
2021/12/02 11:25:13;;;;;;;7.97;3.75;;;11.10;96.70;;;;;;4890209;29;20151;-76
2021/12/02 11:27:44;;;;;;;6.05;3.95;;;11.10;96.70;;;;;;4900002;29;20046;-76
2021/12/02 11:30:15;;;;;;;6.60;3.80;;;11.10;96.70;;;;;;4897343;29;20876;-76
2021/12/02 11:32:48;;;;;;;6.85;3.00;;;11.10;96.70;;;;;;4898552;29;20141;-76
2021/12/02 11:35:23;;;;;;;5.05;2.95;;;11.00;96.70;;;;;;4903956;29;20391;-76
2021/12/02 11:37:54;;;;;;;10.38;5.43;;;11.00;96.70;;;;;;4902070;29;20043;-76
2021/12/02 11:40:25;;;;;;;7.88;4.80;;;11.00;96.70;;;;;;4907917;29;20059;-76
2021/12/02 11:42:54;;;;;;;8.95;5.03;;;11.00;96.70;;;;;;4906751;29;20051;-76
2021/12/02 11:45:25;;;;;;;6.25;4.05;;;10.90;96.70;;;;;;4900270;29;20078;-75
2021/12/02 11:47:55;;;;;;;5.32;4.15;;;10.90;96.70;;;;;;4902127;29;20051;-75
2021/12/02 11:50:28;;;;;;;4.68;3.40;;;10.90;96.70;;;;;;4923317;29;20075;-75
2021/12/02 11:52:59;;;;;;;7.28;4.78;;;10.90;96.70;;;;;;4883090;29;20075;-75
2021/12/02 11:55:31;;;;;;;6.43;3.67;;;10.90;96.70;;;;;;4898644;29;20054;-76
2021/12/02 11:58:00;;;;;;;5.32;2.63;;;10.90;96.70;;;;;;4921422;29;20566;-75
2021/12/02 12:00:29;;;;;;;7.50;2.95;;;10.90;96.70;;;;;;4901534;29;20521;-75
2021/12/02 12:03:02;;;;;;;7.45;5.18;;;10.90;96.70;;;;;;4891420;29;20071;-76
2021/12/02 12:05:34;;;;;;;7.20;3.88;;;10.90;96.70;;;;;;4908589;29;20063;-76
2021/12/02 12:08:02;;;;;;;7.95;5.82;;;10.90;96.70;;;;;;4900150;29;20653;-76
2021/12/02 12:10:34;;;;;;;4.20;2.33;;;10.90;96.70;;;;;;4922224;28;20036;-75
2021/12/02 12:13:15;;;;;;;4.65;2.28;;;10.80;96.70;;;;;;4903270;29;20067;-76
2021/12/02 12:15:46;;;;;;;3.65;2.78;;;10.80;96.70;;;;;;4902858;29;20040;-75
2021/12/02 12:18:39;;;;;;;5.28;3.25;;;10.80;96.70;;;;;;4904041;29;20048;-75
2021/12/02 12:21:09;;;;;;;4.28;2.25;;;10.80;96.70;;;;;;4904030;29;20447;-76
2021/12/02 12:23:47;;;;;;;6.13;2.10;;;10.70;96.70;;;;;;4919476;29;20043;-75
2021/12/02 12:26:29;;;;;;;4.00;2.47;;;10.70;96.70;;;;;;4907400;29;20039;-76
2021/12/02 12:29:28;;;;;;;3.28;1.65;;;10.70;96.70;;;;;;4922468;29;20580;-75
2021/12/02 12:33:00;;;;;;;2.05;1.20;;;10.70;96.70;;;;;;4915784;29;20554;-74
2021/12/02 12:35:31;;;;;;;2.85;1.75;;;10.70;96.70;;;;;;4906671;29;20048;-75
2021/12/02 12:38:02;;;;;;;2.95;1.50;;;10.70;96.70;;;;;;4904383;29;20035;-76
2021/12/02 12:40:48;;;;;;;2.42;1.50;;;10.70;96.70;;;;;;4913626;29;20142;-75
2021/12/02 12:43:22;;;;;;;1.73;1.23;;;10.70;96.70;;;;;;4917613;29;20407;-75
2021/12/02 12:46:13;;;;;;;3.65;2.10;;;10.70;96.70;;;;;;4891121;29;20098;-76
2021/12/02 12:48:42;;;;;;;3.28;1.80;;;10.70;96.70;;;;;;4918431;29;20048;-76
2021/12/02 12:51:33;;;;;;;4.68;1.70;;;10.60;96.70;;;;;;4903030;29;20048;-76
2021/12/02 12:54:05;;;;;;;2.25;1.40;;;10.60;96.70;;;;;;4903567;29;20382;-78
2021/12/02 12:56:39;;;;;;;4.93;2.17;;;10.60;96.70;;;;;;4922348;29;20048;-76
2021/12/02 12:59:10;;;;;;;3.58;1.77;;;10.60;96.70;;;;;;4919329;29;20044;-77
2021/12/02 13:01:40;;;;;;;5.20;2.97;;;10.60;96.70;;;;;;4921131;29;20036;-77
2021/12/02 13:04:18;;;;;;;4.30;2.30;;;10.60;96.70;;;;;;4916260;29;20075;-77
2021/12/02 13:07:03;;;;;;;4.85;2.25;;;10.60;96.70;;;;;;4904752;29;20526;-75
2021/12/02 13:10:00;;;;;;;3.63;2.60;;;10.60;96.70;;;;;;4889034;29;20044;-75
2021/12/02 13:12:48;;;;;;;5.85;2.70;;;10.50;96.70;;;;;;4883167;29;20139;-75
2021/12/02 13:15:22;;;;;;;6.10;3.47;;;10.60;96.70;;;;;;4903221;29;20169;-75
2021/12/02 13:17:52;;;;;;;20.83;13.18;;;10.60;96.70;;;;;;4916105;29;20512;-75
2021/12/02 13:20:35;;;;;;;13.30;8.43;;;10.50;96.70;;;;;;4920618;29;20047;-75
2021/12/02 13:23:38;;;;;;;5.72;3.92;;;10.60;96.70;;;;;;4900867;29;20146;-75
2021/12/02 13:26:21;;;;;;;6.63;3.63;;;10.60;96.70;;;;;;4900261;29;20147;-75
2021/12/02 13:28:53;;;;;;;6.07;3.75;;;10.60;96.70;;;;;;4915357;29;20135;-75